Arnett, Oklahoma
Current Conditions -  °F | °C
As of 5:26 AM on Friday 24 Oct 2014 (Local Time) from KGAG Reporting Station
Moderate Fog Moderate Fog  
Wind Chill: 13°   Ceiling: 500
Heat Index: 13°   Visibility: 0.5mi
Dew Point: 13°   Wind: 5mph
Humidity: 100%   Direction: 270°W
Pressure: 30.06"   Gusts: NA
Location:  36.14°N, 99.77°W
Report Text: KGAG 241026Z AUTO 27004KT 1/2SM FG VV005 13/13 A3006 RMK AO2 T01330133
Loading
Personal Weather Stations






























Interactive Weather Map
Tropical Storm Tracking
New forecast layout! Learn more

10-Day Weather Forecast

Advertisements
Track Severe Weather on mobile